Moose River, Maine
Current Conditions -  °F | °C
As of 3:00 AM on Friday 19 Dec 2014 (Local Time) from CYSC Reporting Station
Overcast Overcast  
Wind Chill: 17°   Ceiling: 1100
Heat Index: 23°   Visibility: 9mi
Dew Point: 21°   Wind: 5mph
Humidity: 93%   Direction: 300°WNW
Pressure: 29.87"   Gusts: NA
Location:  45.7142°N, 70.304°W
Report Text: CYSC 190800Z AUTO 30004KT 9SM OVC011 M05/M06 A2987 RMK SLP128
Loading
Personal Weather Stations






























Interactive Weather Map New forecast layout! Learn more

10-Day Weather Forecast

Advertisements
Track Severe Weather on mobile